Fuerteventura (La Oliva), Spain
Current Conditions -  °F | °C
As of 11:00 PM on Monday 20 Oct 2014 (Local Time) from GCFV Reporting Station
Few Clouds Few Clouds  
Wind Chill: 24°   Ceiling: Unl
Heat Index: 24°   Visibility: 6mi
Dew Point: 19°   Wind: 7mph
Humidity: 73%   Direction: 300°WNW
Pressure: 30"   Gusts: NA
Location:  28.6°N, 13.93°W
Report Text: GCFV 202200Z 30006KT 9999 FEW025 24/19 Q1016
Loading
Personal Weather Stations






























Interactive Weather Map
Tropical Storm Tracking
New forecast layout! Learn more

10-Day Weather Forecast

Advertisements
Track Severe Weather on mobile